Nearby METAR Reports

 

K8A0 - Albertville Muni, Alabama, USA
Distance from station: SW 1mi, 2km
Updated: 10/21/2019 6:55pm
Light rain, Mostly cloudy
Light rain, Mostly cloudy
 Wind from SE
Wind: SE 3 mph , 6 km/h
Temperature: 63°F , 17°C
Dew Point: 61°F , 16°C
Humidity: 94%
Barometer: 29.89 inHg , 1012.2 hPa
Summary: Light rain
Clouds: Mostly cloudy
Visibility: 10 miles , 16 km
Cloud details: Partly cloudy 10000 ft
Mostly cloudy 12000 ft
2019/10/21 23:55 K8A0 212355Z AUTO 14003KT 10SM -RA SCT100 BKN120 17/16 A2989 RMK AO2 P0002
KGAD - Gadsden Muni, Alabama, USA
Distance from station: SSE 21mi, 35km
Updated: 10/21/2019 6:56pm
Light rain, Few clouds
Light rain, Few clouds
 Wind from SE
Wind: SE 8 mph , 13 km/h
Temperature: 66°F , 19°C
Dew Point: 64°F , 18°C
Humidity: 94%
Barometer: 29.89 inHg , 1012.2 hPa
Summary: Light rain
Clouds: Few Clouds
Visibility: 10 miles , 16 km
Cloud details: Few Clouds 12000 ft
2019/10/21 23:56 KGAD 212356Z AUTO 13007KT 10SM -RA FEW120 19/18 A2989 RMK AO2 SLP122 P0002 60040 T01940183 10228 20189 58008
 
K4A6 - Scottsboro, Alabama, USA
Distance from station: NNE 33mi, 53km
Updated: 10/21/2019 6:55pm
Light rain, Mostly cloudy
Light rain, Mostly cloudy
 Wind from ESE
Wind: ESE 7 mph , 11 km/h
Temperature: 64°F , 18°C
Dew Point: 64°F , 18°C
Humidity: 100%
Barometer: 29.87 inHg , 1011.5 hPa
Summary: Light rain
Clouds: Mostly cloudy
Visibility: 7 miles , 11 km
Cloud details: Few Clouds 5000 ft
Partly cloudy 6500 ft
Mostly cloudy 10000 ft
2019/10/21 23:55 K4A6 212355Z AUTO 11006KT 7SM -RA FEW050 SCT065 BKN100 18/18 A2987 RMK AO2 P0003
K4A9 - Ft Payne/Isbell, Alabama, USA
Distance from station: ENE 33mi, 54km
Updated: 10/21/2019 6:55pm
Light rain, Overcast
Light rain, Overcast
 Wind from ESE
Wind: ESE 6 mph , 9 km/h
Temperature: 66°F , 19°C
Dew Point: 64°F , 18°C
Humidity: 94%
Barometer: 29.90 inHg , 1012.5 hPa
Summary: Light rain
Clouds: Overcast
Visibility: 10 miles , 16 km
Cloud details: Partly cloudy 2600 ft
Mostly cloudy 8500 ft
Overcast 12000 ft
2019/10/21 23:55 K4A9 212355Z AUTO 11005KT 10SM -RA SCT026 BKN085 OVC120 19/18 A2990 RMK AO2 P0008 T01860175 10219 20185 402190109 60027
 
KCMD - Cullman/Folsom F, Alabama, USA
Distance from station: W 35mi, 57km
Updated: 10/21/2019 6:55pm
Rain, Partly cloudy
Rain, Partly cloudy
 Wind from calm
Wind: Calm
Temperature: 63°F , 17°C
Dew Point: 61°F , 16°C
Humidity: 94%
Barometer: 29.89 inHg , 1012.2 hPa
Summary: Rain
Clouds: Partly cloudy
Visibility: 10 miles , 16 km
Cloud details: Partly cloudy 800 ft
Partly cloudy 1700 ft
Partly cloudy 2700 ft
2019/10/21 23:55 KCMD 212355Z AUTO 00000KT 10SM RA SCT008 SCT017 SCT027 17/16 A2989 RMK AO2 P0002 60054 T01660157 10216 20160
KHUA - Redstone Arsenal, Alabama, USA
Distance from station: NW 40mi, 64km
Updated: 10/21/2019 6:58pm
Overcast
Overcast
 Wind from S
Wind: S 6 mph , 9 km/h
Temperature: 63°F , 17°C
Dew Point: 61°F , 16°C
Humidity: 94%
Barometer: 29.85 inHg , 1010.8 hPa
Clouds: Overcast
Visibility: 10 miles , 16 km
Cloud details: Mostly cloudy 9000 ft
Overcast 12000 ft
2019/10/21 23:58 KHUA 212358Z AUTO 18005KT 10SM BKN090 OVC120 17/16 A2985 RMK AO2 RAE28RAB41E45 SLP106 P0003 60042 T01670162 10204 20165 58012
 
KHSV - Huntsville, Alabama, USA
Distance from station: NW 42mi, 68km
Updated: 10/21/2019 6:53pm
Mostly cloudy
Mostly cloudy
 Wind from ESE
Wind: ESE 6 mph , 9 km/h
Temperature: 63°F , 17°C
Dew Point: 63°F , 17°C
Humidity: 100%
Barometer: 29.85 inHg , 1010.8 hPa
Clouds: Mostly cloudy
Visibility: 10 miles , 16 km
Cloud details: Partly cloudy 8000 ft
Mostly cloudy 10000 ft
2019/10/21 23:53 KHSV 212353Z 11005KT 10SM SCT080 BKN100 17/17 A2985 RMK AO2 RAE42 SLP105 P0002 60041 T01670167 10211 20167 58013 $
KMDQ - Huntsville/Madis, Alabama, USA
Distance from station: NNW 47mi, 75km
Updated: 10/21/2019 6:55pm
Overcast
Overcast
 Wind from SE
Wind: SE 7 mph , 11 km/h
Temperature: 63°F , 17°C
Dew Point: 61°F , 16°C
Humidity: 94%
Barometer: 29.86 inHg , 1011.2 hPa
Clouds: Overcast
Visibility: 10 miles , 16 km
Cloud details: Partly cloudy 400 ft
Overcast 10000 ft
2019/10/21 23:55 KMDQ 212355Z AUTO 13006KT 10SM SCT004 OVC100 17/16 A2986 RMK A02 T01690163 10202 20167 402280145
 
KASN - Talladega, Alabama, USA
Distance from station: SSE 48mi, 77km
Updated: 10/21/2019 6:55pm
Drizzle, Partly cloudy
Drizzle, Partly cloudy
 Wind from SE
Wind: SE 3 mph , 6 km/h
Temperature: 64°F , 18°C
Dew Point: 64°F , 18°C
Humidity: 100%
Barometer: 29.93 inHg , 1013.5 hPa
Summary: Drizzle
Clouds: Partly cloudy
Visibility: 10 miles , 16 km
Cloud details: Partly cloudy 12000 ft
2019/10/21 23:55 KASN 212355Z AUTO 13003KT 10SM DZ SCT120 18/18 A2993 RMK AO2 P0001 60037 T01790177 10243 20179
KDCU - Decatur, Alabama, USA
Distance from station: NW 49mi, 80km
Updated: 10/21/2019 6:53pm
Overcast
Overcast
 Wind from SE
Wind: SE 7 mph , 11 km/h
Temperature: 63°F , 17°C
Dew Point: 63°F , 17°C
Humidity: 100%
Barometer: 29.85 inHg , 1010.8 hPa
Clouds: Overcast
Visibility: 10 miles , 16 km
Cloud details: Few Clouds 7000 ft
Partly cloudy 8000 ft
Overcast 10000 ft
2019/10/21 23:53 KDCU 212353Z AUTO 13006KT 10SM FEW070 SCT080 OVC100 17/17 A2985 RMK AO2 RAE12 SLP105 P0000 60032 T01720167 10211 20167 58012
 
KGKT - Sevierville, Tennessee, USA
Distance from station: NE 235mi, 378km
Updated: 10/21/2019 6:55pm
Few Clouds
Few Clouds
 Wind from ENE
Wind: ENE 6 mph , 9 km/h
Temperature: 68°F , 20°C
Dew Point: 61°F , 16°C
Humidity: 78%
Barometer: 29.91 inHg , 1012.9 hPa
Clouds: Few Clouds
Visibility: 10 miles , 16 km
Cloud details: Few Clouds 9500 ft
Few Clouds 12000 ft
2019/10/21 23:55 KGKT 212355Z AUTO 07005KT 10SM FEW095 FEW120 20/16 A2991 RMK A01
KECP - Panama City, Florida, USA
Distance from station: S 330mi, 531km
Updated: 10/21/2019 6:53pm
Partly cloudy
Partly cloudy
 Wind from SE
Wind: SE 5 mph , 7 km/h
Temperature: 79°F , 26°C
Dew Point: 72°F , 22°C
Humidity: 79%
Barometer: 29.90 inHg , 1012.5 hPa
Clouds: Partly cloudy
Visibility: 10 miles , 16 km
Cloud details: Partly cloudy 2700 ft
2019/10/21 23:53 KECP 212353Z 14004KT 10SM SCT027 26/22 A2990 RMK AO2 SLP136 T02560222 10300 20256 53001
 
KNYL - Yuma MCAS, Arizona, USA
Distance from station: SW 1900mi, 3600km
Updated: 10/21/2019 6:57pm
Clear
Clear
 Wind from N
Wind: N 13 mph , 20 km/h, Gust: 18 mph , 30 km/h
Temperature: 88°F , 31°C
Dew Point: 21°F , -6°C
Humidity: 9%
Barometer: 29.97 inHg , 1014.9 hPa
Clouds: Clear
Visibility: 7 miles , 11 km
2019/10/21 23:57 KNYL 212357Z 01011G16KT 7SM CLR 31/M06 A2997 RMK AO2 SLP145 T03111056 10317 20289 56006